sensor_id;sensor_type;location;lat;lon;timestamp;P1;durP1;ratioP1;P2;durP2;ratioP2
37201;SDS011;37799;52.390;6.136;2022-08-30T00:01:29;6.13;;;1.30;;
37201;SDS011;37799;52.390;6.136;2022-08-30T00:03:56;4.65;;;1.38;;
37201;SDS011;37799;52.390;6.136;2022-08-30T00:06:23;4.63;;;1.50;;
37201;SDS011;37799;52.390;6.136;2022-08-30T00:08:50;5.15;;;1.30;;
37201;SDS011;37799;52.390;6.136;2022-08-30T00:11:17;5.95;;;1.42;;
37201;SDS011;37799;52.390;6.136;2022-08-30T00:13:46;5.10;;;1.23;;
37201;SDS011;37799;52.390;6.136;2022-08-30T00:16:14;4.90;;;1.25;;
37201;SDS011;37799;52.390;6.136;2022-08-30T00:18:41;4.60;;;1.13;;
37201;SDS011;37799;52.390;6.136;2022-08-30T00:21:07;4.43;;;1.08;;
37201;SDS011;37799;52.390;6.136;2022-08-30T00:23:34;7.00;;;1.58;;
37201;SDS011;37799;52.390;6.136;2022-08-30T00:25:59;6.53;;;0.98;;
37201;SDS011;37799;52.390;6.136;2022-08-30T00:28:26;4.45;;;1.13;;
37201;SDS011;37799;52.390;6.136;2022-08-30T00:30:52;5.20;;;1.30;;
37201;SDS011;37799;52.390;6.136;2022-08-30T00:33:17;5.22;;;1.38;;
37201;SDS011;37799;52.390;6.136;2022-08-30T00:35:43;5.18;;;1.40;;
37201;SDS011;37799;52.390;6.136;2022-08-30T00:38:09;4.63;;;1.20;;
37201;SDS011;37799;52.390;6.136;2022-08-30T00:40:36;4.10;;;1.10;;
37201;SDS011;37799;52.390;6.136;2022-08-30T00:43:03;4.72;;;1.27;;
37201;SDS011;37799;52.390;6.136;2022-08-30T00:45:33;4.43;;;1.45;;
37201;SDS011;37799;52.390;6.136;2022-08-30T00:48:01;4.60;;;1.10;;
37201;SDS011;37799;52.390;6.136;2022-08-30T00:50:28;4.80;;;1.27;;
37201;SDS011;37799;52.390;6.136;2022-08-30T00:52:58;5.40;;;1.50;;
37201;SDS011;37799;52.390;6.136;2022-08-30T00:55:25;6.28;;;1.40;;
37201;SDS011;37799;52.390;6.136;2022-08-30T00:57:53;6.07;;;1.38;;
37201;SDS011;37799;52.390;6.136;2022-08-30T01:00:22;6.53;;;1.40;;
37201;SDS011;37799;52.390;6.136;2022-08-30T01:02:47;5.03;;;1.23;;
37201;SDS011;37799;52.390;6.136;2022-08-30T01:05:13;5.95;;;1.83;;
37201;SDS011;37799;52.390;6.136;2022-08-30T01:07:39;5.25;;;1.30;;
37201;SDS011;37799;52.390;6.136;2022-08-30T01:10:05;8.65;;;1.75;;
37201;SDS011;37799;52.390;6.136;2022-08-30T01:12:34;5.85;;;1.33;;
37201;SDS011;37799;52.390;6.136;2022-08-30T01:15:00;6.05;;;1.70;;
37201;SDS011;37799;52.390;6.136;2022-08-30T01:17:25;5.72;;;1.52;;
37201;SDS011;37799;52.390;6.136;2022-08-30T01:22:39;5.95;;;1.58;;
37201;SDS011;37799;52.390;6.136;2022-08-30T01:25:27;5.53;;;1.80;;
37201;SDS011;37799;52.390;6.136;2022-08-30T01:27:56;7.13;;;2.20;;
37201;SDS011;37799;52.390;6.136;2022-08-30T01:30:25;6.78;;;1.77;;
37201;SDS011;37799;52.390;6.136;2022-08-30T01:32:54;5.90;;;2.10;;
37201;SDS011;37799;52.390;6.136;2022-08-30T01:35:23;6.35;;;1.98;;
37201;SDS011;37799;52.390;6.136;2022-08-30T01:37:48;8.25;;;1.92;;
37201;SDS011;37799;52.390;6.136;2022-08-30T01:40:14;6.55;;;1.60;;
37201;SDS011;37799;52.390;6.136;2022-08-30T01:42:42;5.63;;;1.45;;
37201;SDS011;37799;52.390;6.136;2022-08-30T01:45:08;4.82;;;1.25;;
37201;SDS011;37799;52.390;6.136;2022-08-30T01:47:34;4.78;;;1.42;;
37201;SDS011;37799;52.390;6.136;2022-08-30T01:50:00;6.43;;;1.85;;
37201;SDS011;37799;52.390;6.136;2022-08-30T01:52:25;6.43;;;1.77;;
37201;SDS011;37799;52.390;6.136;2022-08-30T01:54:52;6.63;;;1.88;;
37201;SDS011;37799;52.390;6.136;2022-08-30T01:57:18;6.00;;;1.75;;
37201;SDS011;37799;52.390;6.136;2022-08-30T01:59:45;5.90;;;1.58;;
37201;SDS011;37799;52.390;6.136;2022-08-30T02:02:14;5.80;;;1.63;;
37201;SDS011;37799;52.390;6.136;2022-08-30T02:04:41;7.88;;;2.00;;
37201;SDS011;37799;52.390;6.136;2022-08-30T02:07:07;7.03;;;2.15;;
37201;SDS011;37799;52.390;6.136;2022-08-30T02:09:33;5.53;;;1.80;;
37201;SDS011;37799;52.390;6.136;2022-08-30T02:11:59;7.07;;;1.90;;
37201;SDS011;37799;52.390;6.136;2022-08-30T02:14:24;5.80;;;1.75;;
37201;SDS011;37799;52.390;6.136;2022-08-30T02:16:49;7.97;;;1.83;;
37201;SDS011;37799;52.390;6.136;2022-08-30T02:19:15;6.88;;;1.80;;
37201;SDS011;37799;52.390;6.136;2022-08-30T02:21:40;6.00;;;2.15;;
37201;SDS011;37799;52.390;6.136;2022-08-30T02:24:05;6.63;;;2.00;;
37201;SDS011;37799;52.390;6.136;2022-08-30T02:26:31;6.72;;;2.10;;
37201;SDS011;37799;52.390;6.136;2022-08-30T02:28:56;6.70;;;2.03;;
37201;SDS011;37799;52.390;6.136;2022-08-30T02:31:21;6.28;;;2.13;;
37201;SDS011;37799;52.390;6.136;2022-08-30T02:33:48;7.50;;;1.95;;
37201;SDS011;37799;52.390;6.136;2022-08-30T02:36:14;5.53;;;1.42;;
37201;SDS011;37799;52.390;6.136;2022-08-30T02:38:40;5.72;;;1.90;;
37201;SDS011;37799;52.390;6.136;2022-08-30T02:41:05;7.07;;;2.05;;
37201;SDS011;37799;52.390;6.136;2022-08-30T02:43:31;6.30;;;1.88;;
37201;SDS011;37799;52.390;6.136;2022-08-30T02:45:56;7.93;;;2.33;;
37201;SDS011;37799;52.390;6.136;2022-08-30T02:48:22;6.03;;;1.80;;
37201;SDS011;37799;52.390;6.136;2022-08-30T02:50:48;6.93;;;2.22;;
37201;SDS011;37799;52.390;6.136;2022-08-30T02:53:14;7.55;;;1.90;;
37201;SDS011;37799;52.390;6.136;2022-08-30T02:55:40;8.00;;;2.17;;
37201;SDS011;37799;52.390;6.136;2022-08-30T02:58:06;7.00;;;2.03;;
37201;SDS011;37799;52.390;6.136;2022-08-30T03:00:32;5.45;;;1.80;;
37201;SDS011;37799;52.390;6.136;2022-08-30T03:02:58;6.45;;;1.73;;
37201;SDS011;37799;52.390;6.136;2022-08-30T03:05:24;5.72;;;1.70;;
37201;SDS011;37799;52.390;6.136;2022-08-30T03:07:50;7.50;;;2.10;;
37201;SDS011;37799;52.390;6.136;2022-08-30T03:10:16;7.80;;;2.25;;
37201;SDS011;37799;52.390;6.136;2022-08-30T03:12:41;5.53;;;1.58;;
37201;SDS011;37799;52.390;6.136;2022-08-30T03:15:08;7.15;;;1.90;;
37201;SDS011;37799;52.390;6.136;2022-08-30T03:17:37;7.32;;;2.00;;
37201;SDS011;37799;52.390;6.136;2022-08-30T03:20:03;5.97;;;1.60;;
37201;SDS011;37799;52.390;6.136;2022-08-30T03:22:28;6.85;;;2.22;;
37201;SDS011;37799;52.390;6.136;2022-08-30T03:24:54;6.63;;;1.80;;
37201;SDS011;37799;52.390;6.136;2022-08-30T03:27:23;7.50;;;2.28;;
37201;SDS011;37799;52.390;6.136;2022-08-30T03:29:50;6.22;;;1.70;;
37201;SDS011;37799;52.390;6.136;2022-08-30T03:32:15;7.38;;;2.13;;
37201;SDS011;37799;52.390;6.136;2022-08-30T03:34:40;6.30;;;1.70;;
37201;SDS011;37799;52.390;6.136;2022-08-30T03:37:06;7.68;;;1.98;;
37201;SDS011;37799;52.390;6.136;2022-08-30T03:39:31;6.50;;;2.20;;
37201;SDS011;37799;52.390;6.136;2022-08-30T03:41:56;6.28;;;1.77;;
37201;SDS011;37799;52.390;6.136;2022-08-30T03:44:22;7.63;;;2.55;;
37201;SDS011;37799;52.390;6.136;2022-08-30T03:46:47;6.72;;;2.00;;
37201;SDS011;37799;52.390;6.136;2022-08-30T03:49:14;6.18;;;1.77;;
37201;SDS011;37799;52.390;6.136;2022-08-30T03:51:40;6.70;;;1.60;;
37201;SDS011;37799;52.390;6.136;2022-08-30T03:54:05;6.13;;;1.80;;
37201;SDS011;37799;52.390;6.136;2022-08-30T03:56:30;6.53;;;1.80;;
37201;SDS011;37799;52.390;6.136;2022-08-30T03:58:56;6.28;;;1.80;;
37201;SDS011;37799;52.390;6.136;2022-08-30T04:01:21;6.35;;;1.80;;
37201;SDS011;37799;52.390;6.136;2022-08-30T04:03:47;7.32;;;1.90;;
37201;SDS011;37799;52.390;6.136;2022-08-30T04:06:12;6.88;;;1.70;;
37201;SDS011;37799;52.390;6.136;2022-08-30T04:08:37;6.13;;;2.40;;
37201;SDS011;37799;52.390;6.136;2022-08-30T04:11:03;8.48;;;2.17;;
37201;SDS011;37799;52.390;6.136;2022-08-30T04:13:29;7.10;;;2.13;;
37201;SDS011;37799;52.390;6.136;2022-08-30T04:15:54;6.70;;;1.88;;
37201;SDS011;37799;52.390;6.136;2022-08-30T04:18:20;6.25;;;1.73;;
37201;SDS011;37799;52.390;6.136;2022-08-30T04:20:45;7.18;;;2.20;;
37201;SDS011;37799;52.390;6.136;2022-08-30T04:23:11;6.78;;;1.80;;
37201;SDS011;37799;52.390;6.136;2022-08-30T04:25:37;6.35;;;1.85;;
37201;SDS011;37799;52.390;6.136;2022-08-30T04:28:05;7.20;;;2.20;;
37201;SDS011;37799;52.390;6.136;2022-08-30T04:30:31;6.88;;;2.05;;
37201;SDS011;37799;52.390;6.136;2022-08-30T04:32:57;6.93;;;2.00;;
37201;SDS011;37799;52.390;6.136;2022-08-30T04:35:22;6.30;;;1.90;;
37201;SDS011;37799;52.390;6.136;2022-08-30T04:37:48;6.25;;;2.03;;
37201;SDS011;37799;52.390;6.136;2022-08-30T04:40:13;8.48;;;2.33;;
37201;SDS011;37799;52.390;6.136;2022-08-30T04:42:39;6.95;;;2.33;;
37201;SDS011;37799;52.390;6.136;2022-08-30T04:45:08;7.72;;;1.90;;
37201;SDS011;37799;52.390;6.136;2022-08-30T04:47:36;6.65;;;1.80;;
37201;SDS011;37799;52.390;6.136;2022-08-30T04:50:03;7.63;;;2.13;;
37201;SDS011;37799;52.390;6.136;2022-08-30T04:52:30;6.75;;;2.15;;
37201;SDS011;37799;52.390;6.136;2022-08-30T04:54:55;6.10;;;1.58;;
37201;SDS011;37799;52.390;6.136;2022-08-30T04:57:22;6.07;;;1.80;;
37201;SDS011;37799;52.390;6.136;2022-08-30T04:59:49;6.70;;;2.28;;
37201;SDS011;37799;52.390;6.136;2022-08-30T05:02:14;6.50;;;2.20;;
37201;SDS011;37799;52.390;6.136;2022-08-30T05:04:40;7.63;;;2.13;;
37201;SDS011;37799;52.390;6.136;2022-08-30T05:07:25;6.22;;;1.67;;
37201;SDS011;37799;52.390;6.136;2022-08-30T05:09:51;9.50;;;2.50;;
37201;SDS011;37799;52.390;6.136;2022-08-30T05:12:16;6.63;;;2.20;;
37201;SDS011;37799;52.390;6.136;2022-08-30T05:14:41;6.57;;;2.10;;
37201;SDS011;37799;52.390;6.136;2022-08-30T05:17:07;6.97;;;2.22;;
37201;SDS011;37799;52.390;6.136;2022-08-30T05:19:32;6.55;;;1.80;;
37201;SDS011;37799;52.390;6.136;2022-08-30T05:21:57;7.03;;;2.22;;
37201;SDS011;37799;52.390;6.136;2022-08-30T05:24:23;6.30;;;2.08;;
37201;SDS011;37799;52.390;6.136;2022-08-30T05:26:49;6.60;;;1.90;;
37201;SDS011;37799;52.390;6.136;2022-08-30T05:29:14;6.03;;;2.05;;
37201;SDS011;37799;52.390;6.136;2022-08-30T05:31:39;7.93;;;2.30;;
37201;SDS011;37799;52.390;6.136;2022-08-30T05:34:05;7.00;;;2.05;;
37201;SDS011;37799;52.390;6.136;2022-08-30T05:36:30;6.00;;;2.00;;
37201;SDS011;37799;52.390;6.136;2022-08-30T05:38:59;7.60;;;2.22;;
37201;SDS011;37799;52.390;6.136;2022-08-30T05:41:24;6.40;;;1.77;;
37201;SDS011;37799;52.390;6.136;2022-08-30T05:43:51;6.25;;;1.98;;
37201;SDS011;37799;52.390;6.136;2022-08-30T05:46:21;8.10;;;2.28;;
37201;SDS011;37799;52.390;6.136;2022-08-30T05:48:47;7.57;;;2.30;;
37201;SDS011;37799;52.390;6.136;2022-08-30T05:51:15;7.15;;;2.33;;
37201;SDS011;37799;52.390;6.136;2022-08-30T05:53:45;6.60;;;1.90;;
37201;SDS011;37799;52.390;6.136;2022-08-30T05:56:14;7.10;;;2.15;;
37201;SDS011;37799;52.390;6.136;2022-08-30T05:58:42;8.30;;;1.75;;
37201;SDS011;37799;52.390;6.136;2022-08-30T06:01:17;8.82;;;2.28;;
37201;SDS011;37799;52.390;6.136;2022-08-30T06:03:50;6.30;;;2.10;;
37201;SDS011;37799;52.390;6.136;2022-08-30T06:06:16;6.22;;;2.22;;
37201;SDS011;37799;52.390;6.136;2022-08-30T06:08:42;6.10;;;2.08;;
37201;SDS011;37799;52.390;6.136;2022-08-30T06:11:09;7.75;;;2.40;;
37201;SDS011;37799;52.390;6.136;2022-08-30T06:13:36;7.05;;;2.13;;
37201;SDS011;37799;52.390;6.136;2022-08-30T06:16:01;6.07;;;1.77;;
37201;SDS011;37799;52.390;6.136;2022-08-30T06:18:27;7.35;;;2.22;;
37201;SDS011;37799;52.390;6.136;2022-08-30T06:20:52;6.80;;;2.10;;
37201;SDS011;37799;52.390;6.136;2022-08-30T06:23:17;6.55;;;2.17;;
37201;SDS011;37799;52.390;6.136;2022-08-30T06:25:43;5.78;;;1.90;;
37201;SDS011;37799;52.390;6.136;2022-08-30T06:28:09;5.43;;;1.58;;
37201;SDS011;37799;52.390;6.136;2022-08-30T06:30:35;5.35;;;1.60;;
37201;SDS011;37799;52.390;6.136;2022-08-30T06:33:01;7.57;;;2.75;;
37201;SDS011;37799;52.390;6.136;2022-08-30T06:35:26;5.85;;;1.77;;
37201;SDS011;37799;52.390;6.136;2022-08-30T06:37:52;5.07;;;1.67;;
37201;SDS011;37799;52.390;6.136;2022-08-30T06:40:18;5.80;;;1.33;;
37201;SDS011;37799;52.390;6.136;2022-08-30T06:42:45;4.85;;;1.65;;
37201;SDS011;37799;52.390;6.136;2022-08-30T06:45:11;9.90;;;2.10;;
37201;SDS011;37799;52.390;6.136;2022-08-30T06:47:37;8.07;;;2.10;;
37201;SDS011;37799;52.390;6.136;2022-08-30T06:50:03;5.50;;;2.03;;
37201;SDS011;37799;52.390;6.136;2022-08-30T06:52:29;4.88;;;1.70;;
37201;SDS011;37799;52.390;6.136;2022-08-30T06:54:54;5.23;;;1.43;;
37201;SDS011;37799;52.390;6.136;2022-08-30T06:57:22;4.60;;;1.33;;
37201;SDS011;37799;52.390;6.136;2022-08-30T06:59:47;5.28;;;1.70;;
37201;SDS011;37799;52.390;6.136;2022-08-30T07:02:12;4.47;;;1.40;;
37201;SDS011;37799;52.390;6.136;2022-08-30T07:04:38;6.30;;;1.83;;
37201;SDS011;37799;52.390;6.136;2022-08-30T07:07:03;5.70;;;1.53;;
37201;SDS011;37799;52.390;6.136;2022-08-30T07:09:28;6.20;;;1.40;;
37201;SDS011;37799;52.390;6.136;2022-08-30T07:11:54;4.15;;;1.20;;
37201;SDS011;37799;52.390;6.136;2022-08-30T07:14:22;4.35;;;0.82;;
37201;SDS011;37799;52.390;6.136;2022-08-30T07:16:47;4.65;;;0.80;;
37201;SDS011;37799;52.390;6.136;2022-08-30T07:19:12;2.90;;;0.63;;
37201;SDS011;37799;52.390;6.136;2022-08-30T07:21:39;3.13;;;0.75;;
37201;SDS011;37799;52.390;6.136;2022-08-30T07:24:09;2.45;;;0.60;;
37201;SDS011;37799;52.390;6.136;2022-08-30T07:26:37;2.13;;;0.60;;
37201;SDS011;37799;52.390;6.136;2022-08-30T07:29:13;2.28;;;0.50;;
37201;SDS011;37799;52.390;6.136;2022-08-30T07:31:40;2.50;;;0.40;;
37201;SDS011;37799;52.390;6.136;2022-08-30T07:34:06;2.63;;;0.60;;
37201;SDS011;37799;52.390;6.136;2022-08-30T07:36:33;1.83;;;0.52;;
37201;SDS011;37799;52.390;6.136;2022-08-30T07:39:00;3.78;;;0.60;;
37201;SDS011;37799;52.390;6.136;2022-08-30T07:41:27;1.35;;;0.30;;
37201;SDS011;37799;52.390;6.136;2022-08-30T07:43:58;1.92;;;0.40;;
37201;SDS011;37799;52.390;6.136;2022-08-30T07:46:23;1.60;;;0.65;;
37201;SDS011;37799;52.390;6.136;2022-08-30T07:48:49;1.08;;;0.32;;
37201;SDS011;37799;52.390;6.136;2022-08-30T07:51:17;1.38;;;0.30;;
37201;SDS011;37799;52.390;6.136;2022-08-30T07:53:44;1.10;;;0.30;;
37201;SDS011;37799;52.390;6.136;2022-08-30T07:56:10;2.45;;;0.20;;
37201;SDS011;37799;52.390;6.136;2022-08-30T07:58:36;0.73;;;0.20;;
37201;SDS011;37799;52.390;6.136;2022-08-30T08:01:02;1.33;;;0.40;;
37201;SDS011;37799;52.390;6.136;2022-08-30T08:03:29;1.15;;;0.32;;
37201;SDS011;37799;52.390;6.136;2022-08-30T08:05:55;0.52;;;0.20;;
37201;SDS011;37799;52.390;6.136;2022-08-30T08:08:21;1.35;;;0.45;;
37201;SDS011;37799;52.390;6.136;2022-08-30T08:10:47;1.25;;;0.30;;
37201;SDS011;37799;52.390;6.136;2022-08-30T08:13:13;1.38;;;0.25;;
37201;SDS011;37799;52.390;6.136;2022-08-30T08:15:38;0.60;;;0.10;;
37201;SDS011;37799;52.390;6.136;2022-08-30T08:18:04;2.43;;;0.50;;
37201;SDS011;37799;52.390;6.136;2022-08-30T08:20:30;1.48;;;0.40;;
37201;SDS011;37799;52.390;6.136;2022-08-30T08:22:57;1.70;;;0.65;;
37201;SDS011;37799;52.390;6.136;2022-08-30T08:25:22;1.08;;;0.55;;
37201;SDS011;37799;52.390;6.136;2022-08-30T08:27:48;1.92;;;0.70;;
37201;SDS011;37799;52.390;6.136;2022-08-30T08:30:15;1.33;;;0.80;;
37201;SDS011;37799;52.390;6.136;2022-08-30T08:32:41;2.22;;;1.00;;
37201;SDS011;37799;52.390;6.136;2022-08-30T08:35:07;4.63;;;1.05;;
37201;SDS011;37799;52.390;6.136;2022-08-30T08:37:35;1.73;;;0.75;;
37201;SDS011;37799;52.390;6.136;2022-08-30T08:40:00;2.17;;;0.50;;
37201;SDS011;37799;52.390;6.136;2022-08-30T08:42:39;2.85;;;0.45;;
37201;SDS011;37799;52.390;6.136;2022-08-30T08:45:18;2.13;;;0.30;;
37201;SDS011;37799;52.390;6.136;2022-08-30T08:47:59;1.13;;;0.20;;
37201;SDS011;37799;52.390;6.136;2022-08-30T08:50:28;1.15;;;0.20;;
37201;SDS011;37799;52.390;6.136;2022-08-30T08:53:08;1.15;;;0.20;;
37201;SDS011;37799;52.390;6.136;2022-08-30T08:55:59;0.65;;;0.10;;
37201;SDS011;37799;52.390;6.136;2022-08-30T08:58:29;1.13;;;0.13;;
37201;SDS011;37799;52.390;6.136;2022-08-30T09:01:01;1.63;;;0.22;;
37201;SDS011;37799;52.390;6.136;2022-08-30T09:03:27;1.08;;;0.20;;
37201;SDS011;37799;52.390;6.136;2022-08-30T09:05:53;2.40;;;0.20;;
37201;SDS011;37799;52.390;6.136;2022-08-30T09:08:20;1.15;;;0.20;;
37201;SDS011;37799;52.390;6.136;2022-08-30T09:10:55;1.65;;;0.20;;
37201;SDS011;37799;52.390;6.136;2022-08-30T09:13:24;1.95;;;0.20;;
37201;SDS011;37799;52.390;6.136;2022-08-30T09:15:51;1.45;;;0.32;;
37201;SDS011;37799;52.390;6.136;2022-08-30T09:18:17;1.20;;;0.20;;
37201;SDS011;37799;52.390;6.136;2022-08-30T09:20:44;0.30;;;0.03;;
37201;SDS011;37799;52.390;6.136;2022-08-30T09:25:39;1.15;;;0.30;;
37201;SDS011;37799;52.390;6.136;2022-08-30T09:28:24;2.00;;;0.20;;
37201;SDS011;37799;52.390;6.136;2022-08-30T09:31:44;1.63;;;0.10;;
37201;SDS011;37799;52.390;6.136;2022-08-30T09:36:51;1.63;;;0.20;;
37201;SDS011;37799;52.390;6.136;2022-08-30T09:39:30;1.23;;;0.20;;
37201;SDS011;37799;52.390;6.136;2022-08-30T09:42:12;0.60;;;0.10;;
37201;SDS011;37799;52.390;6.136;2022-08-30T09:44:42;1.83;;;0.35;;
37201;SDS011;37799;52.390;6.136;2022-08-30T09:47:16;0.70;;;0.20;;
37201;SDS011;37799;52.390;6.136;2022-08-30T09:49:45;0.68;;;0.10;;
37201;SDS011;37799;52.390;6.136;2022-08-30T09:52:23;1.08;;;0.10;;
37201;SDS011;37799;52.390;6.136;2022-08-30T09:55:05;2.55;;;0.47;;
37201;SDS011;37799;52.390;6.136;2022-08-30T10:00:18;0.57;;;0.10;;
37201;SDS011;37799;52.390;6.136;2022-08-30T10:05:48;0.70;;;0.10;;
37201;SDS011;37799;52.390;6.136;2022-08-30T10:11:08;1.50;;;0.20;;
37201;SDS011;37799;52.390;6.136;2022-08-30T10:16:29;0.30;;;0.00;;
37201;SDS011;37799;52.390;6.136;2022-08-30T10:21:38;2.38;;;0.20;;
37201;SDS011;37799;52.390;6.136;2022-08-30T10:24:09;1.23;;;0.13;;
37201;SDS011;37799;52.390;6.136;2022-08-30T10:26:49;0.70;;;0.20;;
37201;SDS011;37799;52.390;6.136;2022-08-30T10:29:34;1.40;;;0.30;;
37201;SDS011;37799;52.390;6.136;2022-08-30T10:32:11;0.88;;;0.20;;
37201;SDS011;37799;52.390;6.136;2022-08-30T10:34:56;0.98;;;0.20;;
37201;SDS011;37799;52.390;6.136;2022-08-30T10:37:59;1.13;;;0.20;;
37201;SDS011;37799;52.390;6.136;2022-08-30T10:40:38;1.40;;;0.30;;
37201;SDS011;37799;52.390;6.136;2022-08-30T10:46:04;1.50;;;0.20;;
37201;SDS011;37799;52.390;6.136;2022-08-30T10:48:39;0.73;;;0.10;;
37201;SDS011;37799;52.390;6.136;2022-08-30T10:51:09;1.88;;;0.47;;
37201;SDS011;37799;52.390;6.136;2022-08-30T10:53:44;1.70;;;0.35;;
37201;SDS011;37799;52.390;6.136;2022-08-30T10:56:15;0.77;;;0.10;;
37201;SDS011;37799;52.390;6.136;2022-08-30T10:58:45;4.03;;;0.30;;
37201;SDS011;37799;52.390;6.136;2022-08-30T11:01:16;1.33;;;0.17;;
37201;SDS011;37799;52.390;6.136;2022-08-30T11:12:43;1.00;;;0.15;;
37201;SDS011;37799;52.390;6.136;2022-08-30T11:15:16;1.02;;;0.28;;
37201;SDS011;37799;52.390;6.136;2022-08-30T11:18:29;1.27;;;0.20;;
37201;SDS011;37799;52.390;6.136;2022-08-30T11:20:42;3.53;;;0.20;;
37201;SDS011;37799;52.390;6.136;2022-08-30T11:23:31;1.02;;;0.20;;
37201;SDS011;37799;52.390;6.136;2022-08-30T11:26:06;0.83;;;0.20;;
37201;SDS011;37799;52.390;6.136;2022-08-30T11:33:46;1.30;;;0.10;;
37201;SDS011;37799;52.390;6.136;2022-08-30T11:41:32;0.97;;;0.13;;
37201;SDS011;37799;52.390;6.136;2022-08-30T11:46:45;3.38;;;0.55;;
37201;SDS011;37799;52.390;6.136;2022-08-30T11:59:33;2.83;;;0.20;;
37201;SDS011;37799;52.390;6.136;2022-08-30T12:02:07;8.18;;;1.02;;
37201;SDS011;37799;52.390;6.136;2022-08-30T12:04:34;0.85;;;0.10;;
37201;SDS011;37799;52.390;6.136;2022-08-30T12:07:08;0.63;;;0.10;;
37201;SDS011;37799;52.390;6.136;2022-08-30T12:12:03;0.87;;;0.10;;
37201;SDS011;37799;52.390;6.136;2022-08-30T12:14:55;1.63;;;0.20;;
37201;SDS011;37799;52.390;6.136;2022-08-30T12:17:29;1.88;;;0.30;;
37201;SDS011;37799;52.390;6.136;2022-08-30T12:20:39;1.58;;;0.20;;
37201;SDS011;37799;52.390;6.136;2022-08-30T12:23:14;0.68;;;0.13;;
37201;SDS011;37799;52.390;6.136;2022-08-30T12:25:47;0.90;;;0.17;;
37201;SDS011;37799;52.390;6.136;2022-08-30T12:30:45;0.95;;;0.15;;
37201;SDS011;37799;52.390;6.136;2022-08-30T12:33:12;1.00;;;0.20;;
37201;SDS011;37799;52.390;6.136;2022-08-30T12:35:46;1.52;;;0.20;;
37201;SDS011;37799;52.390;6.136;2022-08-30T12:38:17;0.50;;;0.10;;
37201;SDS011;37799;52.390;6.136;2022-08-30T12:40:48;0.88;;;0.20;;
37201;SDS011;37799;52.390;6.136;2022-08-30T12:43:21;1.90;;;0.30;;
37201;SDS011;37799;52.390;6.136;2022-08-30T12:45:49;1.02;;;0.15;;
37201;SDS011;37799;52.390;6.136;2022-08-30T12:48:15;0.85;;;0.20;;
37201;SDS011;37799;52.390;6.136;2022-08-30T12:50:44;0.55;;;0.10;;
37201;SDS011;37799;52.390;6.136;2022-08-30T12:53:16;0.32;;;0.10;;
37201;SDS011;37799;52.390;6.136;2022-08-30T12:56:05;0.65;;;0.00;;
37201;SDS011;37799;52.390;6.136;2022-08-30T13:01:31;0.77;;;0.10;;
37201;SDS011;37799;52.390;6.136;2022-08-30T13:03:57;2.03;;;0.28;;
37201;SDS011;37799;52.390;6.136;2022-08-30T13:09:00;0.98;;;0.10;;
37201;SDS011;37799;52.390;6.136;2022-08-30T13:11:26;1.25;;;0.20;;
37201;SDS011;37799;52.390;6.136;2022-08-30T13:19:57;0.82;;;0.20;;
37201;SDS011;37799;52.390;6.136;2022-08-30T13:24:58;0.60;;;0.10;;
37201;SDS011;37799;52.390;6.136;2022-08-30T13:27:25;1.73;;;0.30;;
37201;SDS011;37799;52.390;6.136;2022-08-30T13:29:51;1.48;;;0.10;;
37201;SDS011;37799;52.390;6.136;2022-08-30T13:32:17;1.10;;;0.20;;
37201;SDS011;37799;52.390;6.136;2022-08-30T13:34:43;2.03;;;0.25;;
37201;SDS011;37799;52.390;6.136;2022-08-30T13:37:17;1.05;;;0.10;;
37201;SDS011;37799;52.390;6.136;2022-08-30T13:39:47;0.75;;;0.10;;
37201;SDS011;37799;52.390;6.136;2022-08-30T13:42:12;2.65;;;0.43;;
37201;SDS011;37799;52.390;6.136;2022-08-30T13:44:37;0.97;;;0.10;;
37201;SDS011;37799;52.390;6.136;2022-08-30T13:47:03;0.80;;;0.10;;
37201;SDS011;37799;52.390;6.136;2022-08-30T13:49:30;0.85;;;0.10;;
37201;SDS011;37799;52.390;6.136;2022-08-30T13:51:59;1.48;;;0.10;;
37201;SDS011;37799;52.390;6.136;2022-08-30T13:54:24;1.00;;;0.20;;
37201;SDS011;37799;52.390;6.136;2022-08-30T13:56:50;1.07;;;0.13;;
37201;SDS011;37799;52.390;6.136;2022-08-30T13:59:17;1.33;;;0.10;;
37201;SDS011;37799;52.390;6.136;2022-08-30T14:01:43;1.65;;;0.20;;
37201;SDS011;37799;52.390;6.136;2022-08-30T14:04:09;1.52;;;0.22;;
37201;SDS011;37799;52.390;6.136;2022-08-30T14:06:34;1.17;;;0.10;;
37201;SDS011;37799;52.390;6.136;2022-08-30T14:09:00;1.10;;;0.10;;
37201;SDS011;37799;52.390;6.136;2022-08-30T14:11:26;1.13;;;0.15;;
37201;SDS011;37799;52.390;6.136;2022-08-30T14:13:51;1.20;;;0.10;;
37201;SDS011;37799;52.390;6.136;2022-08-30T14:16:17;0.73;;;0.13;;
37201;SDS011;37799;52.390;6.136;2022-08-30T14:18:42;1.73;;;0.20;;
37201;SDS011;37799;52.390;6.136;2022-08-30T14:21:08;1.05;;;0.10;;
37201;SDS011;37799;52.390;6.136;2022-08-30T14:23:33;1.17;;;0.10;;
37201;SDS011;37799;52.390;6.136;2022-08-30T14:25:58;0.85;;;0.10;;
37201;SDS011;37799;52.390;6.136;2022-08-30T14:28:27;1.60;;;0.20;;
37201;SDS011;37799;52.390;6.136;2022-08-30T14:30:54;1.05;;;0.20;;
37201;SDS011;37799;52.390;6.136;2022-08-30T14:33:20;0.85;;;0.10;;
37201;SDS011;37799;52.390;6.136;2022-08-30T14:35:45;0.80;;;0.17;;
37201;SDS011;37799;52.390;6.136;2022-08-30T14:38:11;1.13;;;0.17;;
37201;SDS011;37799;52.390;6.136;2022-08-30T14:40:36;4.00;;;0.50;;
37201;SDS011;37799;52.390;6.136;2022-08-30T14:43:02;2.92;;;0.30;;
37201;SDS011;37799;52.390;6.136;2022-08-30T14:45:27;0.67;;;0.10;;
37201;SDS011;37799;52.390;6.136;2022-08-30T14:47:52;1.60;;;0.20;;
37201;SDS011;37799;52.390;6.136;2022-08-30T14:50:20;1.50;;;0.13;;
37201;SDS011;37799;52.390;6.136;2022-08-30T14:52:45;1.10;;;0.17;;
37201;SDS011;37799;52.390;6.136;2022-08-30T14:55:11;0.67;;;0.10;;
37201;SDS011;37799;52.390;6.136;2022-08-30T14:57:37;0.80;;;0.20;;
37201;SDS011;37799;52.390;6.136;2022-08-30T15:00:04;0.68;;;0.10;;
37201;SDS011;37799;52.390;6.136;2022-08-30T15:02:32;0.73;;;0.10;;
37201;SDS011;37799;52.390;6.136;2022-08-30T15:04:57;1.17;;;0.15;;
37201;SDS011;37799;52.390;6.136;2022-08-30T15:07:23;1.23;;;0.20;;
37201;SDS011;37799;52.390;6.136;2022-08-30T15:09:48;0.90;;;0.20;;
37201;SDS011;37799;52.390;6.136;2022-08-30T15:12:13;0.40;;;0.00;;
37201;SDS011;37799;52.390;6.136;2022-08-30T15:14:39;1.07;;;0.20;;
37201;SDS011;37799;52.390;6.136;2022-08-30T15:17:04;0.82;;;0.13;;
37201;SDS011;37799;52.390;6.136;2022-08-30T15:19:30;0.80;;;0.10;;
37201;SDS011;37799;52.390;6.136;2022-08-30T15:21:58;1.27;;;0.25;;
37201;SDS011;37799;52.390;6.136;2022-08-30T15:24:28;0.57;;;0.10;;
37201;SDS011;37799;52.390;6.136;2022-08-30T15:26:55;1.42;;;0.28;;
37201;SDS011;37799;52.390;6.136;2022-08-30T15:29:20;0.68;;;0.10;;
37201;SDS011;37799;52.390;6.136;2022-08-30T15:31:47;1.58;;;0.10;;
37201;SDS011;37799;52.390;6.136;2022-08-30T15:34:13;1.38;;;0.35;;
37201;SDS011;37799;52.390;6.136;2022-08-30T15:36:41;1.27;;;0.30;;
37201;SDS011;37799;52.390;6.136;2022-08-30T15:39:07;1.90;;;0.20;;
37201;SDS011;37799;52.390;6.136;2022-08-30T15:41:34;0.60;;;0.10;;
37201;SDS011;37799;52.390;6.136;2022-08-30T15:44:00;0.73;;;0.00;;
37201;SDS011;37799;52.390;6.136;2022-08-30T15:46:27;3.40;;;0.17;;
37201;SDS011;37799;52.390;6.136;2022-08-30T15:49:15;0.40;;;0.00;;
37201;SDS011;37799;52.390;6.136;2022-08-30T15:51:42;3.47;;;0.20;;
37201;SDS011;37799;52.390;6.136;2022-08-30T15:54:09;0.98;;;0.17;;
37201;SDS011;37799;52.390;6.136;2022-08-30T15:56:36;0.82;;;0.20;;
37201;SDS011;37799;52.390;6.136;2022-08-30T15:59:01;0.47;;;0.10;;
37201;SDS011;37799;52.390;6.136;2022-08-30T16:01:27;0.60;;;0.10;;
37201;SDS011;37799;52.390;6.136;2022-08-30T16:03:52;0.38;;;0.10;;
37201;SDS011;37799;52.390;6.136;2022-08-30T16:06:19;1.40;;;0.20;;
37201;SDS011;37799;52.390;6.136;2022-08-30T16:08:46;0.50;;;0.10;;
37201;SDS011;37799;52.390;6.136;2022-08-30T16:11:13;0.40;;;0.10;;